Time;durP1;ratioP1;P1;durP2;ratioP2;P2;SDS_P1;SDS_P2;PMS_P1;PMS_P2;Temp;Humidity;BMP_temperature;BMP_pressure;BME280_temperature;BME280_humidity;BME280_pressure;Samples;Min_cycle;Max_cycle;Signal;HPM_P1;HPM_P2
2023/04/22 00:00:20;;;;;;;24.77;18.20;;;;;;;;;;757684;182;919422;-58
2023/04/22 00:02:46;;;;;;;46.17;19.73;;;;;;;;;;756024;182;920650;-59
2023/04/22 00:05:12;;;;;;;27.73;20.80;;;;;;;;;;760568;182;915900;-58
2023/04/22 00:07:37;;;;;;;22.80;17.43;;;;;;;;;;750526;184;916416;-58
2023/04/22 00:10:04;;;;;;;35.50;20.50;;;;;;;;;;756530;182;915751;-59
2023/04/22 00:12:29;;;;;;;28.38;17.40;;;;;;;;;;766717;182;913954;-58
2023/04/22 00:14:55;;;;;;;21.60;16.67;;;;;;;;;;758865;182;939061;-59
2023/04/22 00:17:21;;;;;;;21.30;15.60;;;;;;;;;;748812;183;914575;-60
2023/04/22 00:19:47;;;;;;;24.37;18.58;;;;;;;;;;760521;182;814598;-58
2023/04/22 00:22:13;;;;;;;24.30;18.40;;;;;;;;;;763958;181;918722;-58
2023/04/22 00:24:39;;;;;;;22.63;16.50;;;;;;;;;;767979;182;883449;-58
2023/04/22 00:27:05;;;;;;;21.65;18.05;;;;;;;;;;763187;182;919050;-60
2023/04/22 00:29:31;;;;;;;22.30;18.23;;;;;;;;;;772578;182;815572;-60
2023/04/22 00:31:56;;;;;;;21.73;15.77;;;;;;;;;;764407;181;915276;-59
2023/04/22 00:34:22;;;;;;;29.63;18.40;;;;;;;;;;763399;182;854245;-59
2023/04/22 00:36:50;;;;;;;28.10;16.63;;;;;;;;;;767059;183;919365;-58
2023/04/22 00:39:14;;;;;;;24.83;17.50;;;;;;;;;;764291;181;919975;-59
2023/04/22 00:41:40;;;;;;;24.37;17.77;;;;;;;;;;768437;180;918808;-58
2023/04/22 00:44:06;;;;;;;27.80;16.90;;;;;;;;;;767217;181;919434;-60
2023/04/22 00:46:32;;;;;;;25.87;18.23;;;;;;;;;;756863;183;919178;-60
2023/04/22 00:48:57;;;;;;;26.13;18.30;;;;;;;;;;764844;181;921832;-58
2023/04/22 00:51:23;;;;;;;27.63;18.83;;;;;;;;;;766524;182;920667;-59
2023/04/22 00:53:49;;;;;;;27.80;19.60;;;;;;;;;;772433;180;919217;-58
2023/04/22 00:56:15;;;;;;;27.00;18.80;;;;;;;;;;760810;182;919091;-59
2023/04/22 00:58:41;;;;;;;24.97;17.73;;;;;;;;;;764001;182;819201;-58
2023/04/22 01:01:07;;;;;;;27.60;17.80;;;;;;;;;;766953;182;818098;-59
2023/04/22 01:03:32;;;;;;;33.03;19.03;;;;;;;;;;756288;182;917034;-58
2023/04/22 01:05:58;;;;;;;18.13;14.83;;;;;;;;;;748573;183;940878;-59
2023/04/22 01:08:24;;;;;;;22.03;16.10;;;;;;;;;;759676;183;920504;-59
2023/04/22 01:10:50;;;;;;;20.40;16.30;;;;;;;;;;751864;183;919124;-58
2023/04/22 01:13:16;;;;;;;24.33;16.57;;;;;;;;;;755960;182;919930;-58
2023/04/22 01:15:42;;;;;;;21.48;15.88;;;;;;;;;;770525;181;930166;-59
2023/04/22 01:18:08;;;;;;;22.10;16.07;;;;;;;;;;764542;183;918388;-58
2023/04/22 01:20:34;;;;;;;22.17;16.90;;;;;;;;;;761133;182;917215;-58
2023/04/22 01:23:00;;;;;;;23.97;16.67;;;;;;;;;;765299;182;987619;-58
2023/04/22 01:25:26;;;;;;;28.17;18.20;;;;;;;;;;766265;182;898724;-60
2023/04/22 01:27:52;;;;;;;20.30;15.83;;;;;;;;;;759302;182;916226;-59
2023/04/22 01:30:18;;;;;;;22.77;16.60;;;;;;;;;;763912;182;920277;-59
2023/04/22 01:32:43;;;;;;;27.80;18.00;;;;;;;;;;755691;185;918357;-59
2023/04/22 01:35:09;;;;;;;28.00;16.80;;;;;;;;;;761420;182;920095;-58
2023/04/22 01:37:35;;;;;;;25.17;16.87;;;;;;;;;;756868;183;840964;-59
2023/04/22 01:40:01;;;;;;;24.00;17.10;;;;;;;;;;759994;183;917694;-60
2023/04/22 01:42:27;;;;;;;23.13;15.80;;;;;;;;;;753259;183;915577;-59
2023/04/22 01:44:53;;;;;;;18.80;14.27;;;;;;;;;;758461;183;923823;-59
2023/04/22 01:47:18;;;;;;;18.40;15.80;;;;;;;;;;760479;183;817016;-60
2023/04/22 01:49:44;;;;;;;21.90;16.83;;;;;;;;;;769371;183;819267;-60
2023/04/22 01:52:10;;;;;;;27.30;18.77;;;;;;;;;;769540;180;1018647;-60
2023/04/22 01:54:36;;;;;;;17.33;13.43;;;;;;;;;;768097;180;981545;-61
2023/04/22 01:57:02;;;;;;;20.10;13.67;;;;;;;;;;771322;183;918442;-60
2023/04/22 01:59:28;;;;;;;18.92;14.38;;;;;;;;;;768461;181;918471;-60
2023/04/22 02:01:53;;;;;;;17.97;14.37;;;;;;;;;;769471;181;909630;-58
2023/04/22 02:04:19;;;;;;;22.33;16.00;;;;;;;;;;770249;182;811438;-58
2023/04/22 02:06:45;;;;;;;25.77;16.33;;;;;;;;;;763443;182;939004;-59
2023/04/22 02:09:11;;;;;;;19.33;14.80;;;;;;;;;;762641;182;940173;-58
2023/04/22 02:11:37;;;;;;;20.33;13.33;;;;;;;;;;763388;182;919045;-59
2023/04/22 02:14:03;;;;;;;18.07;13.60;;;;;;;;;;767077;182;917437;-58
2023/04/22 02:16:29;;;;;;;18.23;14.03;;;;;;;;;;764519;181;912754;-58
2023/04/22 02:18:54;;;;;;;17.53;13.53;;;;;;;;;;763339;182;872965;-59
2023/04/22 02:21:20;;;;;;;17.87;14.87;;;;;;;;;;763438;182;883646;-58
2023/04/22 02:23:46;;;;;;;18.93;13.43;;;;;;;;;;756873;181;889945;-58
2023/04/22 02:26:12;;;;;;;19.33;13.23;;;;;;;;;;759500;180;1635536;-59
2023/04/22 02:28:38;;;;;;;17.60;12.23;;;;;;;;;;767810;182;919304;-58
2023/04/22 02:31:04;;;;;;;20.83;14.20;;;;;;;;;;753988;184;918709;-58
2023/04/22 02:33:29;;;;;;;16.67;11.57;;;;;;;;;;749787;184;1021536;-59
2023/04/22 02:35:56;;;;;;;20.08;14.20;;;;;;;;;;759598;180;938479;-58
2023/04/22 02:38:21;;;;;;;21.33;15.47;;;;;;;;;;758599;183;919425;-58
2023/04/22 02:40:47;;;;;;;18.17;15.50;;;;;;;;;;762539;184;918803;-58
2023/04/22 02:43:13;;;;;;;18.37;14.83;;;;;;;;;;761671;183;919529;-59
2023/04/22 02:45:39;;;;;;;21.93;14.70;;;;;;;;;;765232;182;921362;-58
2023/04/22 02:48:05;;;;;;;20.20;13.03;;;;;;;;;;751138;184;915018;-57
2023/04/22 02:50:31;;;;;;;17.70;12.70;;;;;;;;;;756626;182;919660;-58
2023/04/22 02:52:57;;;;;;;20.70;13.93;;;;;;;;;;757123;182;915896;-58
2023/04/22 02:55:23;;;;;;;19.03;13.27;;;;;;;;;;755522;182;919568;-59
2023/04/22 02:57:48;;;;;;;18.80;13.40;;;;;;;;;;761402;181;908276;-58
2023/04/22 03:00:14;;;;;;;17.00;12.77;;;;;;;;;;761165;182;919778;-58
2023/04/22 03:02:40;;;;;;;25.83;17.00;;;;;;;;;;762914;182;914459;-58
2023/04/22 03:05:06;;;;;;;17.43;14.03;;;;;;;;;;765247;181;922039;-58
2023/04/22 03:07:32;;;;;;;19.53;14.40;;;;;;;;;;755188;184;918240;-59
2023/04/22 03:09:58;;;;;;;19.10;14.50;;;;;;;;;;764009;182;919339;-59
2023/04/22 03:12:24;;;;;;;22.37;15.27;;;;;;;;;;763834;182;938331;-59
2023/04/22 03:14:49;;;;;;;23.43;17.07;;;;;;;;;;763240;183;879472;-58
2023/04/22 03:17:15;;;;;;;20.10;13.73;;;;;;;;;;759745;183;909954;-58
2023/04/22 03:19:41;;;;;;;24.20;14.73;;;;;;;;;;765390;181;941193;-58
2023/04/22 03:22:07;;;;;;;19.83;14.43;;;;;;;;;;768073;183;918980;-58
2023/04/22 03:24:33;;;;;;;24.20;17.80;;;;;;;;;;771560;182;918640;-59
2023/04/22 03:26:59;;;;;;;22.97;16.10;;;;;;;;;;764615;181;919193;-59
2023/04/22 03:29:25;;;;;;;24.33;19.00;;;;;;;;;;763235;182;876407;-59
2023/04/22 03:31:50;;;;;;;27.50;18.30;;;;;;;;;;769056;182;1024612;-59
2023/04/22 03:34:16;;;;;;;31.40;19.67;;;;;;;;;;771410;183;616342;-61
2023/04/22 03:36:42;;;;;;;28.27;20.43;;;;;;;;;;765300;182;917537;-58
2023/04/22 03:39:08;;;;;;;25.20;19.07;;;;;;;;;;762713;182;918836;-58
2023/04/22 03:41:34;;;;;;;26.80;19.00;;;;;;;;;;773091;182;829438;-58
2023/04/22 03:44:00;;;;;;;22.20;15.90;;;;;;;;;;768170;182;909406;-58
2023/04/22 03:46:25;;;;;;;22.17;15.90;;;;;;;;;;766342;182;919012;-58
2023/04/22 03:48:51;;;;;;;27.23;16.87;;;;;;;;;;771179;181;919833;-58
2023/04/22 03:51:17;;;;;;;24.87;16.70;;;;;;;;;;766671;182;908069;-58
2023/04/22 03:53:43;;;;;;;24.70;17.17;;;;;;;;;;764502;181;917441;-58
2023/04/22 03:56:09;;;;;;;25.83;16.40;;;;;;;;;;761982;182;860740;-59
2023/04/22 03:58:35;;;;;;;26.20;18.37;;;;;;;;;;754953;184;918186;-58
2023/04/22 04:01:01;;;;;;;22.97;18.00;;;;;;;;;;755330;182;920224;-59
2023/04/22 04:03:26;;;;;;;20.50;16.60;;;;;;;;;;762559;181;1018123;-58
2023/04/22 04:05:52;;;;;;;25.30;17.47;;;;;;;;;;761963;183;920613;-58
2023/04/22 04:08:18;;;;;;;26.37;17.10;;;;;;;;;;750791;185;919308;-58
2023/04/22 04:10:44;;;;;;;25.73;18.60;;;;;;;;;;753151;184;1021900;-58
2023/04/22 04:13:10;;;;;;;22.35;16.25;;;;;;;;;;762342;181;848023;-58
2023/04/22 04:15:36;;;;;;;26.47;17.37;;;;;;;;;;754114;183;927193;-58
2023/04/22 04:18:04;;;;;;;26.43;17.83;;;;;;;;;;762448;182;817682;-58
2023/04/22 04:20:27;;;;;;;28.80;18.98;;;;;;;;;;767170;182;915159;-58
2023/04/22 04:22:53;;;;;;;25.43;17.37;;;;;;;;;;760461;182;921711;-58
2023/04/22 04:25:20;;;;;;;23.83;17.43;;;;;;;;;;758029;182;916980;-58
2023/04/22 04:27:45;;;;;;;26.90;18.00;;;;;;;;;;763434;182;920021;-58
2023/04/22 04:30:11;;;;;;;25.47;18.70;;;;;;;;;;773535;180;919503;-58
2023/04/22 04:32:37;;;;;;;26.33;18.60;;;;;;;;;;765097;181;920417;-58
2023/04/22 04:35:03;;;;;;;26.23;15.70;;;;;;;;;;762294;182;920111;-58
2023/04/22 04:37:28;;;;;;;25.80;15.47;;;;;;;;;;763797;182;917830;-57
2023/04/22 04:39:58;;;;;;;28.57;17.10;;;;;;;;;;753332;183;913441;-58
2023/04/22 04:42:23;;;;;;;23.40;16.80;;;;;;;;;;759438;182;918926;-58
2023/04/22 04:44:47;;;;;;;26.67;18.70;;;;;;;;;;767515;182;921391;-57
2023/04/22 04:47:13;;;;;;;23.17;15.90;;;;;;;;;;758910;182;920769;-57
2023/04/22 04:49:38;;;;;;;24.43;15.17;;;;;;;;;;762607;182;1017238;-57
2023/04/22 04:52:04;;;;;;;23.63;15.67;;;;;;;;;;750309;184;922252;-58
2023/04/22 04:54:29;;;;;;;19.13;15.40;;;;;;;;;;756826;183;920486;-59
2023/04/22 04:56:56;;;;;;;20.17;14.35;;;;;;;;;;764570;182;920818;-59
2023/04/22 04:59:21;;;;;;;20.10;13.80;;;;;;;;;;762302;182;917995;-59
2023/04/22 05:01:47;;;;;;;17.67;13.50;;;;;;;;;;768545;182;816662;-59
2023/04/22 05:04:13;;;;;;;18.37;13.27;;;;;;;;;;756624;182;1023509;-59
2023/04/22 05:06:39;;;;;;;15.63;13.00;;;;;;;;;;756060;182;921311;-58
2023/04/22 05:09:07;;;;;;;18.20;11.60;;;;;;;;;;761507;182;918534;-58
2023/04/22 05:11:30;;;;;;;16.30;11.75;;;;;;;;;;759593;182;921127;-59
2023/04/22 05:13:56;;;;;;;15.30;11.93;;;;;;;;;;761182;182;919738;-59
2023/04/22 05:16:22;;;;;;;15.50;11.07;;;;;;;;;;764540;181;920272;-60
2023/04/22 05:18:48;;;;;;;17.93;11.47;;;;;;;;;;758160;183;918168;-59
2023/04/22 05:21:15;;;;;;;13.80;8.53;;;;;;;;;;753440;183;918290;-59
2023/04/22 05:23:40;;;;;;;14.43;10.30;;;;;;;;;;752819;184;937068;-59
2023/04/22 05:26:06;;;;;;;14.70;9.63;;;;;;;;;;763680;182;920445;-59
2023/04/22 05:28:31;;;;;;;12.47;9.50;;;;;;;;;;758893;181;921846;-59
2023/04/22 05:30:57;;;;;;;15.17;9.30;;;;;;;;;;767980;181;918501;-59
2023/04/22 05:33:23;;;;;;;13.57;10.17;;;;;;;;;;764562;182;801133;-59
2023/04/22 05:35:50;;;;;;;14.60;9.90;;;;;;;;;;756512;183;918407;-58
2023/04/22 05:38:15;;;;;;;13.87;10.60;;;;;;;;;;760124;182;917795;-61
2023/04/22 05:40:41;;;;;;;12.48;10.15;;;;;;;;;;762214;182;916013;-59
2023/04/22 05:43:06;;;;;;;15.50;9.73;;;;;;;;;;759782;182;942512;-60
2023/04/22 05:45:33;;;;;;;14.67;10.03;;;;;;;;;;767388;182;921875;-60
2023/04/22 05:47:58;;;;;;;14.00;10.00;;;;;;;;;;763687;181;916571;-58
2023/04/22 05:50:24;;;;;;;14.27;8.65;;;;;;;;;;763316;184;854919;-58
2023/04/22 05:52:50;;;;;;;11.73;9.70;;;;;;;;;;762146;182;919478;-59
2023/04/22 05:55:16;;;;;;;16.60;8.93;;;;;;;;;;766523;181;921972;-59
2023/04/22 05:57:42;;;;;;;9.33;6.90;;;;;;;;;;767373;182;914872;-59
2023/04/22 06:00:08;;;;;;;14.97;9.47;;;;;;;;;;748454;185;915643;-60
2023/04/22 06:02:34;;;;;;;14.23;9.93;;;;;;;;;;760469;182;910519;-58
2023/04/22 06:05:00;;;;;;;14.23;9.13;;;;;;;;;;765651;182;915276;-59
2023/04/22 06:07:26;;;;;;;13.13;9.17;;;;;;;;;;765452;182;942157;-59
2023/04/22 06:09:51;;;;;;;10.23;8.73;;;;;;;;;;766332;182;867134;-60
2023/04/22 06:12:17;;;;;;;10.10;8.70;;;;;;;;;;763196;182;918900;-59
2023/04/22 06:14:43;;;;;;;12.23;9.37;;;;;;;;;;771827;182;815572;-59
2023/04/22 06:17:09;;;;;;;11.57;6.57;;;;;;;;;;763776;181;942520;-59
2023/04/22 06:19:35;;;;;;;13.40;9.90;;;;;;;;;;767744;181;888139;-58
2023/04/22 06:22:01;;;;;;;11.00;9.03;;;;;;;;;;767269;183;915875;-58
2023/04/22 06:24:26;;;;;;;14.65;9.63;;;;;;;;;;764078;182;917898;-58
2023/04/22 06:26:52;;;;;;;14.20;8.10;;;;;;;;;;761864;182;920833;-58
2023/04/22 06:29:18;;;;;;;14.13;9.33;;;;;;;;;;764227;182;929214;-60
2023/04/22 06:31:44;;;;;;;11.00;7.80;;;;;;;;;;758795;182;921589;-60
2023/04/22 06:34:10;;;;;;;13.73;9.00;;;;;;;;;;754084;182;916044;-59
2023/04/22 06:36:36;;;;;;;16.93;11.27;;;;;;;;;;762866;182;919496;-60
2023/04/22 06:39:04;;;;;;;17.30;10.97;;;;;;;;;;769555;181;823725;-58
2023/04/22 06:41:28;;;;;;;14.13;9.03;;;;;;;;;;762194;181;921493;-58
2023/04/22 06:43:54;;;;;;;13.67;10.13;;;;;;;;;;764406;181;822448;-59
2023/04/22 06:46:20;;;;;;;18.17;11.00;;;;;;;;;;761358;182;910298;-58
2023/04/22 06:48:46;;;;;;;19.77;11.57;;;;;;;;;;755743;179;920695;-58
2023/04/22 06:51:12;;;;;;;15.30;10.40;;;;;;;;;;757636;181;919366;-64
2023/04/22 06:53:38;;;;;;;16.67;12.40;;;;;;;;;;768407;182;917629;-59
2023/04/22 06:56:03;;;;;;;17.73;12.57;;;;;;;;;;764703;181;916831;-60
2023/04/22 06:58:29;;;;;;;16.70;11.23;;;;;;;;;;762482;182;901593;-59
2023/04/22 07:00:55;;;;;;;19.80;11.13;;;;;;;;;;762036;182;894832;-59
2023/04/22 07:03:21;;;;;;;17.50;12.70;;;;;;;;;;764955;182;920173;-59
2023/04/22 07:05:47;;;;;;;19.83;13.03;;;;;;;;;;765617;181;930107;-61
2023/04/22 07:08:13;;;;;;;17.93;12.10;;;;;;;;;;761585;182;918566;-60
2023/04/22 07:10:39;;;;;;;18.33;12.80;;;;;;;;;;767549;182;828277;-59
2023/04/22 07:13:04;;;;;;;17.03;12.93;;;;;;;;;;758961;182;919337;-59
2023/04/22 07:15:30;;;;;;;25.57;12.57;;;;;;;;;;761228;181;855084;-58
2023/04/22 07:17:56;;;;;;;18.00;11.33;;;;;;;;;;765787;181;917983;-59
2023/04/22 07:20:22;;;;;;;17.40;11.40;;;;;;;;;;764503;182;755344;-59
2023/04/22 07:22:48;;;;;;;16.90;12.00;;;;;;;;;;762408;181;918446;-59
2023/04/22 07:25:14;;;;;;;25.40;12.23;;;;;;;;;;765778;182;918412;-60
2023/04/22 07:27:39;;;;;;;18.30;12.90;;;;;;;;;;762554;182;914047;-60
2023/04/22 07:30:06;;;;;;;18.67;11.63;;;;;;;;;;758935;182;913625;-60
2023/04/22 07:32:32;;;;;;;23.40;12.53;;;;;;;;;;763015;182;846474;-60
2023/04/22 07:34:58;;;;;;;15.13;11.87;;;;;;;;;;765489;182;823127;-61
2023/04/22 07:37:23;;;;;;;19.70;13.77;;;;;;;;;;762389;182;921758;-59
2023/04/22 07:39:49;;;;;;;16.47;11.97;;;;;;;;;;761348;182;824010;-61
2023/04/22 07:42:15;;;;;;;18.83;12.90;;;;;;;;;;767587;182;857210;-60
2023/04/22 07:44:41;;;;;;;15.60;12.30;;;;;;;;;;762503;182;865515;-60
2023/04/22 07:47:07;;;;;;;17.17;11.33;;;;;;;;;;764383;182;776721;-60
2023/04/22 07:49:33;;;;;;;16.40;11.33;;;;;;;;;;769321;180;714549;-59
2023/04/22 07:51:58;;;;;;;13.70;10.53;;;;;;;;;;763647;182;919160;-59
2023/04/22 07:54:24;;;;;;;18.43;11.70;;;;;;;;;;761675;182;921333;-59
2023/04/22 07:56:50;;;;;;;18.13;10.57;;;;;;;;;;764415;182;818223;-60
2023/04/22 07:59:16;;;;;;;17.90;10.40;;;;;;;;;;769396;181;904292;-60
2023/04/22 08:01:42;;;;;;;16.27;12.00;;;;;;;;;;759175;182;915784;-60
2023/04/22 08:04:08;;;;;;;13.40;9.70;;;;;;;;;;762036;180;935705;-59
2023/04/22 08:06:34;;;;;;;13.70;9.87;;;;;;;;;;769018;182;879971;-60
2023/04/22 08:08:59;;;;;;;15.10;9.33;;;;;;;;;;762588;181;917622;-59
2023/04/22 08:11:25;;;;;;;14.13;8.90;;;;;;;;;;762245;182;911974;-59
2023/04/22 08:13:51;;;;;;;14.37;9.67;;;;;;;;;;753992;180;930318;-59
2023/04/22 08:16:17;;;;;;;14.23;9.90;;;;;;;;;;755566;182;934169;-58
2023/04/22 08:18:43;;;;;;;11.93;9.43;;;;;;;;;;762447;181;877065;-60
2023/04/22 08:21:09;;;;;;;12.43;9.30;;;;;;;;;;756328;183;859295;-60
2023/04/22 08:23:34;;;;;;;14.27;9.50;;;;;;;;;;763910;182;821267;-60
2023/04/22 08:26:00;;;;;;;11.43;8.40;;;;;;;;;;767941;179;920680;-59
2023/04/22 08:28:26;;;;;;;14.50;10.38;;;;;;;;;;761552;181;923198;-59
2023/04/22 08:30:52;;;;;;;10.53;8.40;;;;;;;;;;766184;182;917276;-58
2023/04/22 08:33:18;;;;;;;60.40;35.77;;;;;;;;;;762590;181;919950;-59
2023/04/22 08:35:44;;;;;;;39.90;27.30;;;;;;;;;;763309;181;848100;-58
2023/04/22 08:38:10;;;;;;;40.83;22.42;;;;;;;;;;768083;182;819615;-57
2023/04/22 08:40:35;;;;;;;71.37;44.23;;;;;;;;;;760844;182;821395;-58
2023/04/22 08:43:01;;;;;;;13.33;10.00;;;;;;;;;;760706;182;919577;-58
2023/04/22 08:45:27;;;;;;;12.40;7.40;;;;;;;;;;766449;182;818126;-58
2023/04/22 08:47:53;;;;;;;9.27;6.10;;;;;;;;;;762347;182;919068;-58
2023/04/22 08:50:19;;;;;;;8.97;5.40;;;;;;;;;;762105;182;918875;-57
2023/04/22 08:52:45;;;;;;;14.00;7.10;;;;;;;;;;760740;182;919169;-58
2023/04/22 08:55:11;;;;;;;15.10;6.47;;;;;;;;;;764406;182;918349;-57
2023/04/22 08:57:37;;;;;;;9.93;5.20;;;;;;;;;;762799;182;918401;-58
2023/04/22 09:00:02;;;;;;;10.47;5.80;;;;;;;;;;765591;181;919554;-58
2023/04/22 09:02:28;;;;;;;10.73;5.50;;;;;;;;;;767218;182;919441;-59
2023/04/22 09:04:54;;;;;;;5.90;5.13;;;;;;;;;;764171;182;847105;-59
2023/04/22 09:07:23;;;;;;;8.60;5.57;;;;;;;;;;762136;182;851878;-57
2023/04/22 09:09:49;;;;;;;7.35;5.97;;;;;;;;;;762110;182;930808;-59
2023/04/22 09:12:17;;;;;;;7.00;4.10;;;;;;;;;;764964;181;915962;-60
2023/04/22 09:14:41;;;;;;;10.03;5.47;;;;;;;;;;764038;181;920141;-57
2023/04/22 09:17:07;;;;;;;8.70;5.55;;;;;;;;;;762508;182;913373;-59
2023/04/22 09:19:32;;;;;;;8.03;4.60;;;;;;;;;;766902;182;722918;-60
2023/04/22 09:21:58;;;;;;;8.20;5.43;;;;;;;;;;765247;181;784876;-59
2023/04/22 09:24:24;;;;;;;6.95;4.75;;;;;;;;;;760412;179;918506;-59
2023/04/22 09:26:50;;;;;;;7.47;4.77;;;;;;;;;;763708;182;813919;-60
2023/04/22 09:29:16;;;;;;;7.60;4.90;;;;;;;;;;760041;182;824031;-58
2023/04/22 09:31:42;;;;;;;8.00;5.00;;;;;;;;;;759887;182;918045;-60
2023/04/22 09:34:07;;;;;;;5.97;4.37;;;;;;;;;;767700;182;919997;-57
2023/04/22 09:36:36;;;;;;;7.70;5.37;;;;;;;;;;758157;181;917190;-59
2023/04/22 09:38:59;;;;;;;6.87;4.63;;;;;;;;;;755770;182;919319;-58
2023/04/22 09:41:25;;;;;;;7.83;5.23;;;;;;;;;;760968;182;877716;-58
2023/04/22 09:43:51;;;;;;;6.97;5.10;;;;;;;;;;766700;181;918891;-59
2023/04/22 09:46:17;;;;;;;7.20;5.57;;;;;;;;;;762367;182;919935;-58
2023/04/22 09:48:43;;;;;;;6.43;4.17;;;;;;;;;;762336;182;919565;-60
2023/04/22 09:51:13;;;;;;;8.73;4.60;;;;;;;;;;762241;181;819678;-58
2023/04/22 09:53:39;;;;;;;9.00;5.80;;;;;;;;;;749027;183;919172;-57
2023/04/22 09:56:05;;;;;;;8.63;4.67;;;;;;;;;;761441;182;922675;-60
2023/04/22 09:58:31;;;;;;;11.80;6.33;;;;;;;;;;761395;182;922084;-60
2023/04/22 10:00:57;;;;;;;11.70;6.10;;;;;;;;;;764648;182;814940;-60
2023/04/22 10:03:22;;;;;;;8.20;5.43;;;;;;;;;;763708;180;919711;-57
2023/04/22 10:05:48;;;;;;;8.30;5.30;;;;;;;;;;762847;182;919973;-58
2023/04/22 10:08:14;;;;;;;6.07;5.00;;;;;;;;;;768471;182;938823;-60
2023/04/22 10:10:40;;;;;;;7.40;4.90;;;;;;;;;;761660;181;919384;-60
2023/04/22 10:13:06;;;;;;;11.37;5.90;;;;;;;;;;759841;182;919236;-59
2023/04/22 10:15:33;;;;;;;6.95;4.97;;;;;;;;;;767549;182;919040;-58
2023/04/22 10:17:59;;;;;;;7.67;4.10;;;;;;;;;;764060;182;823581;-57
2023/04/22 10:20:26;;;;;;;7.35;5.55;;;;;;;;;;765265;181;922281;-58
2023/04/22 10:22:51;;;;;;;7.70;5.17;;;;;;;;;;763155;182;928755;-57
2023/04/22 10:25:20;;;;;;;8.23;4.50;;;;;;;;;;766280;182;791885;-59
2023/04/22 10:27:46;;;;;;;8.70;4.87;;;;;;;;;;761332;182;822567;-59
2023/04/22 10:30:11;;;;;;;6.87;4.93;;;;;;;;;;761779;181;925207;-58
2023/04/22 10:32:37;;;;;;;6.80;5.20;;;;;;;;;;768659;181;859369;-58
2023/04/22 10:35:06;;;;;;;10.20;5.40;;;;;;;;;;760033;181;919041;-60
2023/04/22 10:37:32;;;;;;;8.20;5.07;;;;;;;;;;747229;184;914535;-58
2023/04/22 10:40:03;;;;;;;11.68;4.87;;;;;;;;;;760110;182;919771;-59
2023/04/22 10:42:29;;;;;;;7.10;4.87;;;;;;;;;;772713;181;819342;-61
2023/04/22 10:44:55;;;;;;;7.57;4.57;;;;;;;;;;760321;181;849322;-60
2023/04/22 10:47:25;;;;;;;6.00;4.67;;;;;;;;;;762801;182;814976;-58
2023/04/22 10:49:51;;;;;;;9.03;5.23;;;;;;;;;;763968;181;636325;-60
2023/04/22 10:52:22;;;;;;;9.93;5.30;;;;;;;;;;751444;182;918760;-58
2023/04/22 10:54:56;;;;;;;7.27;4.97;;;;;;;;;;765494;182;772843;-60
2023/04/22 10:57:22;;;;;;;7.20;5.10;;;;;;;;;;763247;182;819584;-59
2023/04/22 10:59:47;;;;;;;7.62;5.45;;;;;;;;;;763793;182;818912;-59
2023/04/22 11:02:13;;;;;;;6.37;5.27;;;;;;;;;;762676;182;868186;-61
2023/04/22 11:04:39;;;;;;;10.90;4.80;;;;;;;;;;765199;182;920549;-59
2023/04/22 11:07:11;;;;;;;9.10;5.33;;;;;;;;;;765086;181;817053;-61
2023/04/22 11:09:39;;;;;;;6.33;4.53;;;;;;;;;;767672;181;813909;-61
2023/04/22 11:12:10;;;;;;;5.17;4.67;;;;;;;;;;762247;182;819536;-59
2023/04/22 11:14:36;;;;;;;8.23;4.83;;;;;;;;;;759139;181;912689;-59
2023/04/22 11:17:02;;;;;;;6.67;5.20;;;;;;;;;;764583;182;909658;-61
2023/04/22 11:19:28;;;;;;;8.07;5.20;;;;;;;;;;767282;182;864159;-61
2023/04/22 11:21:54;;;;;;;5.93;4.83;;;;;;;;;;761129;182;916315;-58
2023/04/22 11:24:20;;;;;;;6.57;5.10;;;;;;;;;;762089;180;915248;-61
2023/04/22 11:26:45;;;;;;;8.60;5.67;;;;;;;;;;766528;181;883709;-59
2023/04/22 11:29:11;;;;;;;6.90;5.13;;;;;;;;;;761318;181;873498;-59
2023/04/22 11:31:37;;;;;;;6.33;4.60;;;;;;;;;;764826;182;862365;-59
2023/04/22 11:34:03;;;;;;;10.68;4.90;;;;;;;;;;761891;182;909596;-61
2023/04/22 11:36:29;;;;;;;5.70;4.20;;;;;;;;;;768310;181;915800;-59
2023/04/22 11:38:55;;;;;;;7.60;4.97;;;;;;;;;;764281;181;1125517;-61
2023/04/22 11:41:22;;;;;;;8.23;5.17;;;;;;;;;;765154;181;924366;-59
2023/04/22 11:43:47;;;;;;;7.00;4.90;;;;;;;;;;768721;181;920545;-59
2023/04/22 11:46:13;;;;;;;8.13;5.30;;;;;;;;;;761979;181;923061;-61
2023/04/22 11:48:38;;;;;;;6.20;4.57;;;;;;;;;;763371;181;818726;-62
2023/04/22 11:51:08;;;;;;;7.67;5.27;;;;;;;;;;766856;182;918123;-62
2023/04/22 11:53:33;;;;;;;7.53;5.20;;;;;;;;;;763249;182;818395;-60
2023/04/22 11:55:59;;;;;;;5.30;4.80;;;;;;;;;;761928;181;926206;-59
2023/04/22 11:58:25;;;;;;;8.70;4.90;;;;;;;;;;763581;182;819698;-62
2023/04/22 12:00:50;;;;;;;8.87;4.93;;;;;;;;;;761962;182;816493;-59
2023/04/22 12:03:17;;;;;;;8.60;4.53;;;;;;;;;;760892;182;844414;-59
2023/04/22 12:05:43;;;;;;;8.40;4.83;;;;;;;;;;760017;182;921134;-59
2023/04/22 12:08:12;;;;;;;5.20;4.20;;;;;;;;;;754867;184;911711;-59
2023/04/22 12:10:39;;;;;;;8.97;5.43;;;;;;;;;;757261;182;934850;-62
2023/04/22 12:13:04;;;;;;;6.90;4.77;;;;;;;;;;763567;182;816545;-59
2023/04/22 12:15:39;;;;;;;7.63;4.80;;;;;;;;;;765563;182;857355;-61
2023/04/22 12:18:05;;;;;;;6.40;4.17;;;;;;;;;;760441;182;917854;-62
2023/04/22 12:20:33;;;;;;;6.43;4.63;;;;;;;;;;763186;182;915955;-59
2023/04/22 12:22:58;;;;;;;6.27;4.30;;;;;;;;;;762137;182;918656;-62
2023/04/22 12:25:24;;;;;;;11.30;4.73;;;;;;;;;;767113;182;917646;-61
2023/04/22 12:27:50;;;;;;;6.50;4.53;;;;;;;;;;760527;182;917017;-59
2023/04/22 12:30:16;;;;;;;6.43;4.37;;;;;;;;;;762332;182;827464;-59
2023/04/22 12:32:42;;;;;;;6.30;4.93;;;;;;;;;;759099;181;919700;-59
2023/04/22 12:35:07;;;;;;;7.60;4.40;;;;;;;;;;755612;184;918812;-59
2023/04/22 12:37:33;;;;;;;9.27;5.03;;;;;;;;;;761327;181;918557;-59
2023/04/22 12:39:59;;;;;;;6.13;4.60;;;;;;;;;;763059;181;913840;-62
2023/04/22 12:42:25;;;;;;;6.80;4.60;;;;;;;;;;765330;181;921983;-62
2023/04/22 12:44:51;;;;;;;5.33;4.80;;;;;;;;;;762261;180;891970;-59
2023/04/22 12:47:17;;;;;;;8.60;5.37;;;;;;;;;;764200;182;915270;-62
2023/04/22 12:49:43;;;;;;;12.47;5.67;;;;;;;;;;764951;182;921144;-61
2023/04/22 12:52:08;;;;;;;5.43;4.03;;;;;;;;;;763837;180;920551;-59
2023/04/22 12:54:34;;;;;;;11.67;5.30;;;;;;;;;;750449;186;915559;-59
2023/04/22 12:57:01;;;;;;;7.07;5.10;;;;;;;;;;761909;180;896629;-61
2023/04/22 12:59:26;;;;;;;6.93;5.30;;;;;;;;;;758797;182;919978;-59
2023/04/22 13:01:53;;;;;;;5.70;4.67;;;;;;;;;;763641;182;929864;-61
2023/04/22 13:04:18;;;;;;;8.13;4.67;;;;;;;;;;763676;182;907513;-60
2023/04/22 13:06:43;;;;;;;8.50;5.23;;;;;;;;;;768700;182;816724;-61
2023/04/22 13:09:09;;;;;;;7.57;5.20;;;;;;;;;;762364;182;921213;-61
2023/04/22 13:11:36;;;;;;;7.10;4.33;;;;;;;;;;762666;182;920868;-59
2023/04/22 13:14:01;;;;;;;7.80;4.60;;;;;;;;;;767566;182;878723;-59
2023/04/22 13:16:27;;;;;;;6.20;4.63;;;;;;;;;;762192;182;919571;-61
2023/04/22 13:18:53;;;;;;;6.50;4.87;;;;;;;;;;764592;181;775041;-59
2023/04/22 13:21:18;;;;;;;8.20;5.07;;;;;;;;;;762134;182;912354;-59
2023/04/22 13:23:44;;;;;;;7.47;5.07;;;;;;;;;;751234;184;918149;-59
2023/04/22 13:26:10;;;;;;;9.30;4.90;;;;;;;;;;753836;182;921248;-61
2023/04/22 13:28:36;;;;;;;8.13;4.60;;;;;;;;;;762932;182;919861;-60
2023/04/22 13:31:02;;;;;;;7.23;4.83;;;;;;;;;;766113;181;918250;-59
2023/04/22 13:33:28;;;;;;;9.37;5.27;;;;;;;;;;763724;182;924302;-61
2023/04/22 13:35:54;;;;;;;7.23;5.80;;;;;;;;;;761188;182;920540;-59
2023/04/22 13:38:20;;;;;;;8.17;5.30;;;;;;;;;;765099;182;918965;-59
2023/04/22 13:40:45;;;;;;;6.40;4.40;;;;;;;;;;762119;182;919927;-61
2023/04/22 13:43:11;;;;;;;7.77;5.13;;;;;;;;;;763414;182;908065;-62
2023/04/22 13:45:37;;;;;;;7.13;5.03;;;;;;;;;;766210;182;813687;-61
2023/04/22 13:48:03;;;;;;;7.30;4.90;;;;;;;;;;763000;181;919498;-62
2023/04/22 13:50:29;;;;;;;6.57;5.37;;;;;;;;;;761220;182;857099;-60
2023/04/22 13:52:55;;;;;;;7.17;4.90;;;;;;;;;;755311;183;813484;-60
2023/04/22 13:55:21;;;;;;;7.07;5.10;;;;;;;;;;767697;180;815783;-61
2023/04/22 13:57:46;;;;;;;5.90;4.50;;;;;;;;;;761263;182;940247;-58
2023/04/22 14:00:12;;;;;;;6.90;5.37;;;;;;;;;;764424;181;919277;-58
2023/04/22 14:02:38;;;;;;;6.90;5.53;;;;;;;;;;772968;181;633124;-61
2023/04/22 14:05:04;;;;;;;6.93;4.67;;;;;;;;;;767029;181;717750;-59